Tiempo atmosférico en la estación meteorológica de Caravaca de La Cruz, Murcia (643 m.)

Fecha
DESCASC
Temp. máxima en grados centígrados (hora)
DESCASC
Temp. mínima en grados centígrados (hora)
DESCASC
Temp. media en grados centígrados
DESCASC
Racha de viento máxima en m/sg (hora)
DESCASC
Velocidad máxima media en intervalos de 10 minutos(hora)
DESCASC
Precipitaciones diarias en mm
DESCASC
Precipitaciones de 00:00 a 06:00 en mm
DESCASC
Precipitaciones de 06:00 a 12:00 en mm
DESCASC
Precipitaciones de 12:00 a 18:00 en mm
DESCASC
Precipitaciones de 18:00 a 24:00 en mm
DESCASC
23-11-2017 23.9 (13:00) 5.6 (02:50) 14.7 8.61 (03:00) 5.83 (05:20) 0 0 0 0 0
22-11-2017 21.1 (13:50) 3.8 (07:50) 12.5 7.5 (22:50) 5.28 (23:20) 0 0 0 0 0
21-11-2017 20.8 (13:00) 5.2 (05:30) 13 7.22 (06:20) 5.28 (06:20) 0 0 0 0 0
20-11-2017 20.4 (12:00) 2.7 (08:00) 11.5 6.39 (03:40) 4.72 (03:30) 0 0 0 0 0
19-11-2017 17.8 (14:00) 1.9 (00:00) 9.8 5.56 (08:00) 3.89 (22:10) 0 0 0 0 0
18-11-2017 19.8 (13:40) 2.9 (00:00) 11.3 7.5 (06:10) 5.28 (04:30) 0 0 0 0 0
17-11-2017 18.7 (14:00) 2 (00:00) 10.4 7.22 (23:00) 5 (23:00) 0 0 0 0 0
16-11-2017 18.4 (14:30) 2.4 (00:00) 10.4 6.67 (06:50) 4.72 (07:10) 0 0 0 0 0
15-11-2017 17.2 (13:30) -0.4 (00:00) 8.4 7.5 (04:10) 5 (07:00) 0 0 0 0 0
14-11-2017 13.5 (13:30) -1.3 (-00:0) 6.1 5.83 (00:40) 3.89 (21:50) 0 0 0 0 0
13-11-2017 19 (10:50) 6.3 (00:00) 12.7 12.5 (12:20) 4.72 (12:20) 0 0 0 0 0
12-11-2017 23.6 (14:10) 6.5 (00:00) 15.1 9.72 (08:30) 6.39 (08:30) 0 0 0 0 0
11-11-2017 18.2 (15:30) 4.5 (00:00) 11.4 10 (11:50) 4.72 (13:10) 0 0 0 0 0
10-11-2017 15.3 (16:20) 1.6 (00:00) 8.5 9.72 (15:00) 4.72 (13:20) 0 0 0 0 0
09-11-2017 13.9 (12:50) 1.9 (00:00) 7.9 10 (12:00) 4.72 (13:10) 0 0 0 0 0
08-11-2017 18.6 (14:10) 2.1 (00:00) 10.4 6.67 (00:30) 5 (00:20) 0 0 0 0 0
07-11-2017 18.9 (16:10) 0.6 (00:00) 9.7 5.83 (23:50) 4.17 (23:59) 0 0 0 0 0
06-11-2017 17.1 (13:50) 6 (00:00) 11.6 9.17 (15:00) 4.44 (15:30) 0 0 0 0 0
05-11-2017 20.7 (14:30) 7.6 (00:00) 14.2 10.56 (15:50) 5.28 (06:50) 0 0 0 0 0
04-11-2017 19.2 (15:50) 8.8 (00:00) 14 10.56 (13:50) 5.83 (16:00) 0.2 0 0 0.2 0
03-11-2017 19.5 (14:40) 10.3 (00:00) 14.9 6.11 (13:10) 3.89 (13:20) 0 0 0 0 0
02-11-2017 21.8 (13:10) 9.9 (08:00) 15.8 6.67 (04:30) 3.33 (04:30) 0 0 0 0 0
01-11-2017 20.8 (13:20) 9.2 (00:00) 15 6.94 (15:50) 3.89 (15:40) 0 0 0 0 0
31-10-2017 20.4 (14:10) 8.4 (00:00) 14.4 5.28 (16:00) 2.78 (13:30) 0 0 0 0 0
30-10-2017 22.5 (14:20) 8.8 (00:00) 15.7 6.39 (15:30) 4.72 (07:50) 0 0 0 0 0
29-10-2017 23.2 (12:20) 9.4 (00:00) 16.3 6.67 (04:10) 4.72 (04:10) 0 0 0 0 0
28-10-2017 23 (15:10) 9.7 (00:00) 16.3 6.67 (00:50) 4.17 (00:10) 0 0 0 0 0
27-10-2017 28.6 (14:30) 6.6 (00:00) 17.6 7.22 (07:10) 5 (07:10) 0 0 0 0 0
26-10-2017 26.9 (15:20) 7.7 (00:00) 17.3 6.94 (08:40) 4.72 (08:10) 0 0 0 0 0
25-10-2017 27.3 (15:30) 7.8 (00:00) 17.5 7.5 (14:40) 4.72 (06:50) 0 0 0 0 0

Gráficas

Temp. máximas Temp. mínimas Temp. medias Precipitaciones Rachas de viento máximas Velocidades máximas media en intervalos de 10 minutos

Datos horarios

Fecha y hora oficial Temperatura (ºC) Velocidad del viento (km/h) Dirección del viento Racha (km/h) Dirección de racha Precipitación (mm) Presión (hPa) Tendencia (hPa) Humedad (%)
2017-11-23 23:00:00 10.6 12 Oeste 25 Sudoeste 0 947.4 0.8 33
2017-11-23 22:00:00 11.6 13 Sudoeste 20 Oeste 0 947.2 1 30
2017-11-23 21:00:00 12.4 10 Sudoeste 14 Sudoeste 0 947.1 1.5 29
2017-11-23 20:00:00 13.6 9 Oeste 15 Oeste 0 946.6 1.4 27
2017-11-23 19:00:00 14.2 6 Noroeste 15 Noroeste 0 946.2 1.4 27
2017-11-23 18:00:00 15.9 9 Noroeste 13 Noroeste 0 945.6 0.8 24
2017-11-23 17:00:00 19.7 5 Nordeste 14 Este 0 945.2 0.2 19
2017-11-23 16:00:00 20.8 7 Nordeste 15 Este 0 944.8 -0.5 17
2017-11-23 15:00:00 21.1 9 Este 19 Nordeste 0 944.8 -1.1 17
2017-11-23 14:00:00 22.1 9 Nordeste 21 Nordeste 0 945 -1.2 16
2017-11-23 13:00:00 23.6 6 Sudeste 14 Sudeste 0 945.3 -0.4 13
2017-11-23 12:00:00 21.3 6 Sudoeste 13 Sudoeste 0 945.9 0.7 17
2017-11-23 11:00:00 18.4 7 Sudoeste 23 Oeste 0 946.2 1.8 22
2017-11-23 10:00:00 12.9 16 Oeste 26 Oeste 0 945.7 2 27
2017-11-23 09:00:00 9.8 10 Sudoeste 28 Sudoeste 0 945.2 2.1 31
2017-11-23 08:00:00 6.7 16 Oeste 27 Sudoeste 0 944.4 1.4 36
2017-11-23 07:00:00 6.4 15 Oeste 27 Oeste 0 943.7 0.9 34
2017-11-23 06:00:00 6.5 19 Oeste 30 Oeste 0 943.1 0.4 33
2017-11-23 05:00:00 6.3 17 Oeste 27 Oeste 0 943 0.4 33
2017-11-23 04:00:00 6.8 18 Oeste 26 Oeste 0 942.8 0 30
2017-11-23 03:00:00 6.1 19 Oeste 31 Oeste 0 942.7 0 32
2017-11-23 02:00:00 6.4 17 Oeste 27 Oeste 0 942.6 0.1 32
2017-11-23 01:00:00 6.2 20 Oeste 27 Sudoeste 0 942.8 0.7 40
2017-11-23 00:00:00 6.7 12 Oeste 26 Sudoeste 0 942.7 0.9 45
2017-11-22 23:00:00 7.3 19 Oeste 27 Oeste 0 942.5 0.7 45
2017-11-22 22:00:00 8.1 10 Oeste 22 Sudoeste 0 942.1 0.6 44
2017-11-22 21:00:00 9 13 Sudoeste 19 Oeste 0 941.8 0.5 42
2017-11-22 20:00:00 11 9 Oeste 15 Noroeste 0 941.8 0.7 40
2017-11-22 19:00:00 10.6 8 Noroeste 13 Noroeste 0 941.5 0.4 42
2017-11-22 18:00:00 12.5 5 Noroeste 14 Nordeste 0 941.3 0.3 38
2017-11-22 17:00:00 17 5 Norte 16 Este 0 941.1 -0.2 27
2017-11-22 16:00:00 18.3 9 Nordeste 16 Nordeste 0 941.1 -0.9 24
2017-11-22 15:00:00 18.7 10 Nordeste 20 Nordeste 0 941 -1.9 24
2017-11-22 14:00:00 20.7 5 Este 14 Sur 0 941.3 -2.1 16
2017-11-22 13:00:00 19.6 9 Sur 18 Sur 0 942 -1.5 17
2017-11-22 12:00:00 19 8 Sudoeste 17 Sur 0 942.9 -0.5 22
2017-11-22 11:00:00 17.3 8 Sudoeste 14 Sudoeste 0 943.4 0.3 26
2017-11-22 10:00:00 12.2 6 Oeste 16 Oeste 0 943.5 0.4 39
2017-11-22 09:00:00 6.7 3 Oeste 22 Sudoeste 0 943.4 0.1 54
2017-11-22 08:00:00 5 15 Oeste 24 Oeste 0 943.1 -0.5 56
2017-11-22 07:00:00 5.7 11 Oeste 24 Oeste 0 943.1 -1 54
2017-11-22 06:00:00 5.8 18 Oeste 24 Oeste 0 943.3 -1.2 54
2017-11-22 05:00:00 5.6 12 Oeste 19 Sudoeste 0 943.6 -1.1 56
2017-11-22 04:00:00 4.4 7 Oeste 17 Sudoeste 0 944.1 -1.1 63
2017-11-22 03:00:00 6.8 9 Oeste 23 Oeste 0 944.5 -1 53
2017-11-22 02:00:00 7 14 Oeste 24 Oeste 0 944.7 -0.8 53
2017-11-22 01:00:00 6.4 6 Oeste 26 Oeste 0 945.2 -0.6 56
2017-11-22 00:00:00 8.4 17 Oeste 24 Oeste 0 945.5 -0.6 48
2017-11-21 23:00:00 9.2 16 Sudoeste 23 Sudoeste 0 945.5 -0.6 45
2017-11-21 22:00:00 10.1 5 Oeste 13 Sudoeste 0 945.8 -0.1 52
2017-11-21 21:00:00 11.8 8 Oeste 13 Oeste 0 946.1 0.5 50
2017-11-21 20:00:00 13.1 11 Oeste 17 Oeste 0 946.1 0.7 39
2017-11-21 19:00:00 12.9 10 Noroeste 14 Noroeste 0 945.9 0.3 31
2017-11-21 18:00:00 13.5 5 Noroeste 9 Nordeste 0 945.6 -0.2 31
2017-11-21 17:00:00 18.3 5 Nordeste 13 Nordeste 0 945.4 -1 22
2017-11-21 16:00:00 19.3 7 Nordeste 14 Nordeste 0 945.6 -1.7 20
2017-11-21 15:00:00 19.7 8 Este 18 Nordeste 0 945.8 -2.2 20
2017-11-21 14:00:00 20.3 10 Este 18 Este 0 946.4 -2 19
2017-11-21 13:00:00 20.6 7 Este 13 Sudeste 0 947.3 -1 22
2017-11-21 12:00:00 19.8 6 Este 12 Este 0 948 -0.1 23
2017-11-21 11:00:00 18.2 3 Sur 11 Sudoeste 0 948.4 0.7 25
2017-11-21 10:00:00 13.6 6 Sudoeste 15 Oeste 0 948.3 0.6 33
2017-11-21 09:00:00 9.2 9 Oeste 22 Oeste 0 948.1 0.3 43
2017-11-21 08:00:00 6.8 11 Oeste 26 Sudoeste 0 947.7 0 49
2017-11-21 07:00:00 6.4 17 Oeste 26 Sudoeste 0 947.7 -0.2 51
2017-11-21 06:00:00 6.5 14 Oeste 24 Oeste 0 947.8 -0.5 51
2017-11-21 05:00:00 6.3 13 Oeste 23 Sudoeste 0 947.7 -0.6 53
2017-11-21 04:00:00 6.7 15 Oeste 26 Sudoeste 0 947.9 -0.8 52
2017-11-21 03:00:00 6.7 17 Sudoeste 26 Oeste 0 948.3 -0.5 52
2017-11-21 02:00:00 6.9 13 Oeste 24 Oeste 0 948.3 -0.5 54
2017-11-21 01:00:00 7.4 14 Oeste 23 Sudoeste 0 948.7 -0.2 53
2017-11-21 00:00:00 7.6 8 Oeste 19 Sudoeste 0 948.8 0.2 55
2017-11-20 23:00:00 8.7 11 Oeste 18 Oeste 0 948.8 0.3 54
2017-11-20 22:00:00 8.8 5 Oeste 19 Sudoeste 0 948.9 1 54
2017-11-20 21:00:00 10.2 9 Oeste 12 Oeste 0 948.6 1.1 50
2017-11-20 20:00:00 9.5 5 Oeste 9 Oeste 0 948.5 1.2 53
2017-11-20 19:00:00 10.7 6 Noroeste 13 Noroeste 0 947.9 0.7 48
2017-11-20 18:00:00 13.5 5 Noroeste 10 Noroeste 0 947.5 0.1 39
2017-11-20 17:00:00 18.5 4 Nordeste 12 Sudeste 0 947.3 -0.7 28
2017-11-20 16:00:00 19.3 8 Este 15 Este 0 947.2 -1.6 27
2017-11-20 15:00:00 19.7 8 Este 15 Este 0 947.4 -1.8 27
2017-11-20 14:00:00 20 7 Este 17 Este 0 948 -1.4 26
2017-11-20 13:00:00 19.6 10 Este 17 Este 0 948.8 -0.6 27
2017-11-20 12:00:00 20.2 5 Sudeste 12 Sudoeste 0 949.2 0.1 24
2017-11-20 11:00:00 17 6 Sudoeste 13 Sudoeste 0 949.4 0.5 30
2017-11-20 10:00:00 12.4 7 Sudoeste 17 Sudoeste 0 949.4 1.2 39
2017-11-20 09:00:00 7.9 9 Oeste 16 Sudoeste 0 949.1 1 50
2017-11-20 08:00:00 2.7 6 Oeste 12 Oeste 0 948.9 1.2 73
2017-11-20 07:00:00 4.8 8 Oeste 18 Oeste 0 948.2 0.5 62
2017-11-20 06:00:00 5 8 Oeste 22 Oeste 0 948.1 0.1 60
2017-11-20 05:00:00 6.2 15 Oeste 22 Oeste 0 947.7 -0.5 54
2017-11-20 04:00:00 5.8 12 Oeste 23 Oeste 0 947.7 -0.7 58
2017-11-20 03:00:00 5 9 Oeste 17 Sudoeste 0 948 -0.6 65
2017-11-20 02:00:00 6.5 9 Oeste 21 Oeste 0 948.2 -0.3 60
2017-11-20 01:00:00 6 9 Oeste 18 Sudoeste 0 948.4 0.1 65
2017-11-20 00:00:00 6.2 6 Oeste 16 Sudoeste 0 948.6 0.7 66
2017-11-19 23:00:00 7.1 9 Oeste 19 Sudoeste 0 948.5 0.9 64
2017-11-19 22:00:00 8.5 11 Sudoeste 18 Sudoeste 0 948.3 1.4 62
2017-11-19 21:00:00 6.9 5 Sudoeste 8 Sudoeste 0 947.9 1.4 74
2017-11-19 20:00:00 8.6 3 Sudoeste 11 Noroeste 0 947.6 1.7 70
2017-11-19 19:00:00 10.7 6 Noroeste 12 Noroeste 0 946.9 1.3 63
2017-11-19 18:00:00 12.4 4 Noroeste 10 Nordeste 0 946.5 0.6 60
2017-11-19 17:00:00 16.5 5 Este 10 Este 0 945.9 -0.4 49
2017-11-19 16:00:00 17.2 5 Este 13 Este 0 945.6 -1.3 44
2017-11-19 15:00:00 17.6 6 Este 14 Nordeste 0 945.9 -1.5 39
2017-11-19 14:00:00 17.5 6 Este 16 Sudeste 0 946.3 -1.5 38
2017-11-19 13:00:00 17.3 10 Este 17 Este 0 946.9 -0.9 37
2017-11-19 12:00:00 16.8 6 Este 11 Este 0 947.4 0 33
2017-11-19 11:00:00 15.5 3 Sudeste 8 Sudeste 0 947.8 0.9 37
2017-11-19 10:00:00 11.5 4 Sudoeste 14 Sudoeste 0 947.8 1.4 47
2017-11-19 09:00:00 6.6 9 Oeste 19 Oeste 0 947.4 1.3 57
2017-11-19 08:00:00 3.4 13 Oeste 20 Sudoeste 0 946.9 0.8 67
2017-11-19 07:00:00 2.2 3 Sur 18 Oeste 0 946.4 0 80
2017-11-19 06:00:00 4 11 Oeste 19 Oeste 0 946.1 -0.4 68
2017-11-19 05:00:00 4.2 6 Oeste 15 Oeste 0 946.1 -0.3 72
2017-11-19 04:00:00 4.9 8 Oeste 14 Oeste 0 946.4 -0.2 71
2017-11-19 03:00:00 4 6 Oeste 16 Sudoeste 0 946.5 -0.1 74
2017-11-19 02:00:00 4.8 8 Sudoeste 13 Oeste 0 946.4 0 73
2017-11-19 01:00:00 4.7 6 Oeste 14 Oeste 0 946.6 0.4 76
2017-11-19 00:00:00 4.8 0 Calma 13 Oeste 0 946.6 0.7 75
2017-11-18 23:00:00 6 2 Oeste 14 Sudoeste 0 946.4 1 72
2017-11-18 22:00:00 8.3 9 Oeste 16 Oeste 0 946.2 1.2 62
2017-11-18 21:00:00 9.5 10 Oeste 16 Oeste 0 945.9 1.3 61
2017-11-18 20:00:00 11.9 8 Sudoeste 15 Oeste 0 945.4 1.2 63
2017-11-18 19:00:00 10.3 4 Sudoeste 9 Noroeste 0 945 1.2 53
2017-11-18 18:00:00 13.1 5 Noroeste 12 Nordeste 0 944.6 0.8 46
2017-11-18 17:00:00 17.1 8 Este 17 Nordeste 0 944.2 -0.1 33
2017-11-18 16:00:00 18.8 8 Este 18 Nordeste 0 943.8 -1.1 28
2017-11-18 15:00:00 19.4 8 Este 14 Este 0 943.8 -1.7 24
2017-11-18 14:00:00 19.6 9 Este 14 Nordeste 0 944.3 -1.5 24
2017-11-18 13:00:00 19.2 7 Este 13 Este 0 944.9 -0.9 23
2017-11-18 12:00:00 18.9 8 Este 14 Este 0 945.5 -0.4 24
2017-11-18 11:00:00 17.5 5 Sur 15 Sudoeste 0 945.8 0.4 26
2017-11-18 10:00:00 11.5 10 Sudoeste 17 Sudoeste 0 945.8 0.9 34
2017-11-18 09:00:00 7.4 11 Sudoeste 17 Oeste 0 945.9 1.1 43
2017-11-18 08:00:00 3.2 6 Oeste 22 Oeste 0 945.4 0.4 61
2017-11-18 07:00:00 4.8 13 Oeste 27 Oeste 0 944.9 -0.3 49
2017-11-18 06:00:00 5 14 Oeste 24 Oeste 0 944.8 -0.5 49
2017-11-18 05:00:00 5.1 11 Oeste 24 Oeste 0 945 -0.5 50
2017-11-18 04:00:00 5.8 13 Oeste 22 Oeste 0 945.2 -0.7 48
2017-11-18 03:00:00 4.8 8 Oeste 20 Oeste 0 945.3 -0.7 53
2017-11-18 02:00:00 6.3 12 Oeste 22 Oeste 0 945.5 -0.4 46
2017-11-18 01:00:00 6.5 13 Oeste 23 Oeste 0 945.9 0.4 46
2017-11-18 00:00:00 5.5 10 Oeste 21 Sudoeste 0 946 0.7 52
2017-11-17 23:00:00 7.7 18 Oeste 26 Sudoeste 0 945.9 0.6 41
2017-11-17 22:00:00 8.4 14 Oeste 21 Oeste 0 945.5 0.5 40
2017-11-17 21:00:00 9.3 9 Oeste 14 Sudoeste 0 945.3 0.8 39
2017-11-17 20:00:00 9.9 6 Oeste 12 Oeste 0 945.3 1 46
2017-11-17 19:00:00 11.6 8 Noroeste 13 Noroeste 0 945 0.7 32
2017-11-17 18:00:00 12.5 5 Noroeste 12 Nordeste 0 944.5 0 31
2017-11-17 17:00:00 16.9 7 Este 15 Este 0 944.3 -0.7 22
2017-11-17 16:00:00 18 9 Nordeste 18 Este 0 944.3 -1.2 20
2017-11-17 15:00:00 18.5 9 Este 18 Este 0 944.5 -1.6 21
2017-11-17 14:00:00 18.7 8 Este 17 Sudeste 0 945 -1.3 24
2017-11-17 13:00:00 18.1 11 Este 18 Este 0 945.5 -0.8 25
2017-11-17 12:00:00 17.5 6 Este 12 Este 0 946.1 -0.1 25
2017-11-17 11:00:00 16.6 4 Sudeste 15 Sudoeste 0 946.3 0.5 26
2017-11-17 10:00:00 11.3 10 Sudoeste 18 Oeste 0 946.3 0.8 37
2017-11-17 09:00:00 7.5 10 Oeste 21 Sudoeste 0 946.2 0.6 45
2017-11-17 08:00:00 2.7 9 Oeste 20 Oeste 0 945.8 0.2 64
2017-11-17 07:00:00 4.3 12 Oeste 21 Sudoeste 0 945.5 -0.2 55
2017-11-17 06:00:00 2.7 6 Oeste 13 Sudoeste 0 945.6 -0.2 67
2017-11-17 05:00:00 3 7 Oeste 17 Oeste 0 945.6 -0.6 66
2017-11-17 04:00:00 4.4 11 Oeste 19 Oeste 0 945.7 -0.8 55
2017-11-17 03:00:00 4.5 12 Oeste 21 Sudoeste 0 945.8 -1 56
2017-11-17 02:00:00 4.1 6 Sudoeste 19 Oeste 0 946.2 -0.2 59
2017-11-17 01:00:00 5.3 10 Oeste 18 Oeste 0 946.5 0.1 54
2017-11-17 00:00:00 3.8 5 Oeste 11 Oeste 0 946.8 0.8 66
2017-11-16 23:00:00 5.6 3 Sudoeste 14 Oeste 0 946.4 0.9 59
2017-11-16 22:00:00 6.2 3 Noroeste 20 Sudoeste 0 946.4 1.2 57
2017-11-16 21:00:00 8 4 Oeste 12 Oeste 0 946 1.2 54
2017-11-16 20:00:00 11.5 9 Oeste 18 Oeste 0 945.5 1.1 57
2017-11-16 19:00:00 10.6 6 Oeste 10 Oeste 0 945.2 1.1 38
2017-11-16 18:00:00 12.7 4 Norte 17 Este 0 944.8 0.7 35
2017-11-16 17:00:00 16.2 9 Este 19 Este 0 944.4 0 26
2017-11-16 16:00:00 17.7 8 Nordeste 19 Nordeste 0 944.1 -0.8 23
2017-11-16 15:00:00 17.9 8 Este 17 Este 0 944.1 -1.5 24
2017-11-16 14:00:00 17.9 8 Este 17 Este 0 944.4 -1.4 24
2017-11-16 13:00:00 17.8 9 Este 15 Este 0 944.9 -0.8 23
2017-11-16 12:00:00 17.1 9 Este 15 Este 0 945.6 0.2 26
2017-11-16 11:00:00 17.2 4 Sudeste 15 Sudoeste 0 945.8 1 27
2017-11-16 10:00:00 11.1 8 Sudoeste 20 Sudoeste 0 945.7 1.1 37
2017-11-16 09:00:00 6.2 6 Oeste 23 Oeste 0 945.4 0.9 47
2017-11-16 08:00:00 4.1 17 Sudoeste 24 Oeste 0 944.8 0.5 51
2017-11-16 07:00:00 3.6 13 Sudoeste 24 Sudoeste 0 944.6 0.3 54
2017-11-16 06:00:00 4.8 14 Sudoeste 22 Sudoeste 0 944.5 0 50
2017-11-16 05:00:00 3.4 9 Oeste 19 Oeste 0 944.3 -0.4 56
2017-11-16 04:00:00 3.4 7 Oeste 18 Sudoeste 0 944.3 -0.6 56
2017-11-16 03:00:00 5.5 13 Oeste 22 Sudoeste 0 944.5 -0.4 45
2017-11-16 02:00:00 5.9 14 Oeste 22 Oeste 0 944.7 -0.3 44
2017-11-16 01:00:00 5.6 15 Oeste 24 Sudoeste 0 944.9 -0.1 47
2017-11-16 00:00:00 5.8 11 Sudoeste 19 Sudoeste 0 944.9 0.4 49
2017-11-15 23:00:00 5.9 9 Sudoeste 15 Sudoeste 0 945 0.8 51
2017-11-15 22:00:00 7.3 11 Oeste 19 Sudoeste 0 945 1 48
2017-11-15 21:00:00 8 3 Sudoeste 14 Oeste 0 944.5 0.9 51
2017-11-15 20:00:00 10.5 9 Oeste 15 Oeste 0 944.2 0.8 45
2017-11-15 19:00:00 11.2 8 Noroeste 14 Noroeste 0 944 0.6 41
2017-11-15 18:00:00 11.4 5 Noroeste 9 Nordeste 0 943.6 0.2 42
2017-11-15 17:00:00 15.3 5 Nordeste 13 Nordeste 0 943.4 -0.5 30
2017-11-15 16:00:00 16.1 8 Nordeste 17 Sudeste 0 943.4 -1.3 28
2017-11-15 15:00:00 16.7 10 Este 18 Este 0 943.4 -2 25
2017-11-15 14:00:00 16.6 9 Nordeste 16 Este 0 943.9 -2.1 23
2017-11-15 13:00:00 16.3 6 Este 13 Este 0 944.7 -1.4 23
2017-11-15 12:00:00 16.5 5 Sudeste 16 Sudoeste 0 945.4 -0.5 23
2017-11-15 11:00:00 13.7 8 Sudoeste 19 Sudoeste 0 946 0.3 26
2017-11-15 10:00:00 10 9 Oeste 18 Sudoeste 0 946.1 0.9 31
2017-11-15 09:00:00 5.5 10 Sudoeste 23 Sudoeste 0 945.9 0.5 38
2017-11-15 08:00:00 1.9 10 Sudoeste 21 Sudoeste 0 945.7 0.4 49
2017-11-15 07:00:00 1.5 18 Sudoeste 25 Sudoeste 0 945.2 -0.5 50
2017-11-15 06:00:00 1.3 13 Oeste 25 Oeste 0 945.4 -0.3 51
2017-11-15 05:00:00 0.1 6 Oeste 27 Oeste 0 945.3 -0.8 57
2017-11-15 04:00:00 1.5 16 Oeste 26 Oeste 0 945.7 -0.2 49
2017-11-15 03:00:00 1.8 12 Oeste 25 Oeste 0 945.7 -0.4 48
2017-11-15 02:00:00 2.1 10 Oeste 21 Oeste 0 946.1 -0.1 47
2017-11-15 01:00:00 2 8 Oeste 18 Oeste 0 945.9 0.2 50
2017-11-15 00:00:00 0.8 5 Oeste 13 Sudoeste 0 946.1 1 57
2017-11-14 23:00:00 2.5 5 Oeste 20 Oeste 0 946.2 1.7 49
2017-11-14 22:00:00 4.5 13 Sudoeste 21 Oeste 0 945.7 1.6 39
2017-11-14 21:00:00 4.7 7 Sudoeste 10 Sudoeste 0 945.1 1.6 39
2017-11-14 20:00:00 5.5 5 Noroeste 14 Noroeste 0 944.5 1.5 40
2017-11-14 19:00:00 7.5 8 Noroeste 13 Noroeste 0 944.1 1.3 33
2017-11-14 18:00:00 8.2 6 Noroeste 11 Este 0 943.5 0.6 37
2017-11-14 17:00:00 12 8 Este 16 Este 0 943 -0.1 24
2017-11-14 16:00:00 12.8 8 Este 18 Este 0 942.8 -0.7 23
2017-11-14 15:00:00 13.2 10 Este 19 Sudeste 0 942.9 -1.3 23
2017-11-14 14:00:00 13.4 9 Este 18 Este 0 943.1 -1.2 23
2017-11-14 13:00:00 12.5 10 Este 21 Este 0 943.5 -0.7 23
2017-11-14 12:00:00 11.2 10 Nordeste 19 Este 0 944.2 0.1 25
2017-11-14 11:00:00 10.7 7 Este 12 Este 0 944.3 0.8 27
2017-11-14 10:00:00 8.5 4 Sudoeste 11 Sudoeste 0 944.2 1.2 31
2017-11-14 09:00:00 4.3 6 Sudoeste 10 Sudoeste 0 944.1 1.3 44
2017-11-14 08:00:00 -1.3 3 Noroeste 8 Noroeste 0 943.5 0.7 67
2017-11-14 07:00:00 0.7 5 Noroeste 14 Oeste 0 943 0.2 56
2017-11-14 06:00:00 1.8 6 Sudoeste 13 Sudoeste 0 942.8 0.1 50
2017-11-14 05:00:00 0.9 2 Norte 10 Oeste 0 942.8 -0.1 60
2017-11-14 04:00:00 2.2 4 Oeste 11 Norte 0 942.8 -0.3 47
2017-11-14 03:00:00 1.5 5 Oeste 10 Oeste 0 942.7 -0.7 55
2017-11-14 02:00:00 4.8 4 Sudeste 19 Norte 0 942.9 -0.7 40
2017-11-14 01:00:00 6.1 3 Noroeste 21 Norte 0 943.1 -0.5 33
2017-11-14 00:00:00 7.6 9 Norte 23 Oeste 0 943.4 0 28
2017-11-13 23:00:00 7.3 5 Norte 19 Norte 0 943.6 0.1 36
2017-11-13 22:00:00 9 6 Norte 21 Norte 0 943.6 1 30
2017-11-13 21:00:00 7.7 5 Noroeste 13 Noroeste 0 943.4 1.4 45
2017-11-13 20:00:00 10.4 6 Norte 25 Noroeste 0 943.5 2.3 36
2017-11-13 19:00:00 12.2 10 Norte 27 Noroeste 0 942.6 2 30
2017-11-13 18:00:00 12.9 7 Norte 26 Norte 0 942 1.2 33
2017-11-13 17:00:00 15.4 12 Norte 29 Norte 0 941.2 -0.1 25
2017-11-13 16:00:00 16.6 11 Norte 30 Norte 0 940.6 -0.8 25
2017-11-13 15:00:00 17.6 8 Noroeste 30 Norte 0 940.8 -1.4 25
2017-11-13 14:00:00 17.6 14 Norte 38 Nordeste 0 941.3 -0.7 28
2017-11-13 13:00:00 17.8 15 Nordeste 45 Nordeste 0 941.4 -0.7 28
2017-11-13 12:00:00 18.4 14 Norte 32 Nordeste 0 942.2 0.2 24
2017-11-13 11:00:00 18.9 7 Norte 22 Oeste 0 942 -0.2 23
2017-11-13 10:00:00 17.4 3 Sudoeste 19 Sur 0 942.1 0.5 24
2017-11-13 09:00:00 14.5 12 Sudoeste 27 Oeste 0 942 0.6 35
2017-11-13 08:00:00 12.2 5 Noroeste 22 Oeste 0 942.2 0.3 45
2017-11-13 07:00:00 12.4 6 Nordeste 28 Nordeste 0 941.6 -0.9 44
2017-11-13 06:00:00 10.6 4 Sudoeste 13 Este 0 941.4 -1.4 50
2017-11-13 05:00:00 8.2 3 Oeste 19 Sur 0 941.9 -1.1 59
2017-11-13 04:00:00 8.9 4 Noroeste 13 Oeste 0 942.5 -0.7 55
2017-11-13 03:00:00 11.7 9 Sudoeste 23 Sudoeste 0 942.8 -0.8 41
2017-11-13 02:00:00 14.1 13 Oeste 27 Oeste 0 943 -0.9 33
2017-11-13 01:00:00 14.6 13 Oeste 23 Oeste 0 943.2 -0.7 29
2017-11-13 00:00:00 14 6 Noroeste 21 Noroeste 0 943.6 -0.2 30
2017-11-12 23:00:00 15.5 10 Oeste 23 Noroeste 0 943.9 0 27
2017-11-12 22:00:00 15.7 10 Noroeste 29 Norte 0 943.9 0.3 26
2017-11-12 21:00:00 13.5 6 Sudeste 17 Oeste 0 943.8 0.7 31
2017-11-12 20:00:00 14.2 10 Sudoeste 21 Oeste 0 943.9 0.9 32
2017-11-12 19:00:00 16.7 8 Oeste 16 Noroeste 0 943.6 0.6 27
2017-11-12 18:00:00 16.4 5 Oeste 17 Norte 0 943.1 -0.2 25
2017-11-12 17:00:00 20.6 10 Norte 20 Norte 0 943 -0.9 17
2017-11-12 16:00:00 22.2 8 Oeste 27 Nordeste 0 943 -1.8 16
2017-11-12 15:00:00 22.4 6 Norte 34 Este 0 943.3 -2.6 16
2017-11-12 14:00:00 23 4 Sudeste 18 Este 0 943.9 -2.5 16
2017-11-12 13:00:00 21.9 5 Este 14 Este 0 944.8 -1.9 20
2017-11-12 12:00:00 21.2 6 Este 10 Este 0 945.9 -1 22
2017-11-12 11:00:00 19.3 3 Sudeste 21 Sudoeste 0 946.4 -0.4 29
2017-11-12 10:00:00 14.2 12 Sudoeste 27 Sudoeste 0 946.7 0 42
2017-11-12 09:00:00 10.1 19 Sudoeste 35 Sudoeste 0 946.9 0.1 44
2017-11-12 08:00:00 7 18 Oeste 29 Oeste 0 946.8 -0.1 53
2017-11-12 07:00:00 6.8 15 Oeste 26 Oeste 0 946.7 -0.3 56
2017-11-12 06:00:00 7.6 15 Oeste 23 Oeste 0 946.8 -0.5 57
2017-11-12 05:00:00 7.3 15 Oeste 27 Oeste 0 946.9 -0.8 60
2017-11-12 04:00:00 7.5 13 Oeste 28 Oeste 0 947 -1.5 61
2017-11-12 03:00:00 9.3 18 Sudoeste 30 Oeste 0 947.3 -1.6 56
2017-11-12 02:00:00 9 16 Oeste 27 Oeste 0 947.7 -1.5 57
2017-11-12 01:00:00 9.7 14 Oeste 23 Sudoeste 0 948.5 -1 56
2017-11-12 00:00:00 10.4 15 Sudoeste 23 Sudoeste 0 948.9 -0.6 53
2017-11-11 23:00:00 10.6 13 Sudoeste 20 Sudoeste 0 949.2 -0.2 53
2017-11-11 22:00:00 10.5 15 Sudoeste 22 Sudoeste 0 949.5 0.1 53
2017-11-11 21:00:00 11.8 11 Oeste 17 Oeste 0 949.5 0.3 49
2017-11-11 20:00:00 11.1 4 Oeste 14 Noroeste 0 949.4 0.5 53
2017-11-11 19:00:00 12.6 9 Noroeste 14 Noroeste 0 949.4 0.5 46
2017-11-11 18:00:00 13.9 3 Norte 18 Nordeste 0 949.2 0.2 46
2017-11-11 17:00:00 17.3 8 Nordeste 21 Nordeste 0 948.9 -0.5 33
2017-11-11 16:00:00 18.2 14 Este 26 Este 0 948.9 -1.1 32
2017-11-11 15:00:00 18 12 Este 26 Nordeste 0 949 -1.7 33
2017-11-11 14:00:00 18 14 Nordeste 27 Nordeste 0 949.4 -1.5 33
2017-11-11 13:00:00 17.5 13 Nordeste 31 Nordeste 0 950 -1.1 35
2017-11-11 12:00:00 16.8 13 Nordeste 36 Nordeste 0 950.7 -0.2 36
2017-11-11 11:00:00 15.6 5 Sudeste 13 Este 0 950.9 0.5 44
2017-11-11 10:00:00 12.7 3 Sudeste 8 Sudeste 0 951.1 0.8 52
2017-11-11 09:00:00 8.4 3 Sudoeste 7 Oeste 0 950.9 0.8 67
2017-11-11 08:00:00 4.5 0 Calma 8 Noroeste 0 950.4 -0.2 82
2017-11-11 07:00:00 5.3 3 Norte 17 Oeste 0 950.3 -0.5 79
2017-11-11 06:00:00 6.7 6 Oeste 9 Oeste 0 950.1 -0.9 74
2017-11-11 05:00:00 8.7 5 Nordeste 17 Norte 0 950.6 -0.6 63
2017-11-11 04:00:00 11.2 7 Noroeste 18 Noroeste 0 950.8 -0.7 57
2017-11-11 03:00:00 10.2 7 Oeste 17 Noroeste 0 951 -0.5 57
2017-11-11 02:00:00 8.3 4 Noroeste 13 Noroeste 0 951.2 -0.3 68
2017-11-11 01:00:00 9.2 4 Noroeste 12 Oeste 0 951.5 0 59
2017-11-11 00:00:00 8.3 5 Oeste 10 Oeste 0 951.5 0.2 61
2017-11-10 23:00:00 8.2 4 Noroeste 10 Norte 0 951.5 0.2 62
2017-11-10 22:00:00 9.2 3 Noroeste 13 Norte 0 951.5 0.3 58
2017-11-10 21:00:00 10.6 5 Noroeste 15 Noroeste 0 951.3 0.7 53
2017-11-10 20:00:00 10.1 5 Oeste 12 Sudoeste 0 951.3 1.1 53
2017-11-10 19:00:00 8.8 7 Oeste 10 Sudoeste 0 951.2 1.2 54
2017-11-10 18:00:00 11.6 2 Nordeste 16 Nordeste 0 950.6 0.6 49
2017-11-10 17:00:00 14.8 8 Norte 35 Nordeste 0 950.2 0 34
2017-11-10 16:00:00 15.1 14 Nordeste 32 Norte 0 950 -0.8 32
2017-11-10 15:00:00 15 13 Nordeste 35 Nordeste 0 950 -1.2 28
2017-11-10 14:00:00 14.6 17 Nordeste 34 Nordeste 0 950.2 -1.2 28
2017-11-10 13:00:00 14.4 14 Nordeste 33 Nordeste 0 950.8 -0.6 28
2017-11-10 12:00:00 14.8 8 Norte 27 Este 0 951.2 0.2 28
2017-11-10 11:00:00 12.2 6 Norte 23 Este 0 951.4 0.5 35
2017-11-10 10:00:00 10.6 6 Sudeste 10 Sudeste 0 951.4 1.1 41
2017-11-10 09:00:00 7.2 0 Calma 7 Oeste 0 951 1 55
2017-11-10 08:00:00 1.6 5 Oeste 9 Sur 0 950.9 1.4 75
2017-11-10 07:00:00 3.9 6 Sur 16 Norte 0 950.3 0.7 64
2017-11-10 06:00:00 5.2 4 Nordeste 18 Noroeste 0 950 0.2 59
2017-11-10 05:00:00 4.2 4 Oeste 18 Noroeste 0 949.5 -0.1 65
2017-11-10 04:00:00 6.1 6 Noroeste 19 Norte 0 949.6 -0.2 56
2017-11-10 03:00:00 6.6 5 Norte 15 Noroeste 0 949.8 0 55
2017-11-10 02:00:00 7.4 6 Noroeste 16 Norte 0 949.6 -0.1 51
2017-11-10 01:00:00 7.2 5 Norte 17 Norte 0 949.8 0.3 53
2017-11-10 00:00:00 8.1 8 Noroeste 17 Noroeste 0 949.8 0.8 48
2017-11-09 23:00:00 8 7 Noroeste 18 Noroeste 0 949.7 0.9 50
2017-11-09 22:00:00 7.6 5 Noroeste 18 Noroeste 0 949.5 1 53
2017-11-09 21:00:00 7.7 4 Noroeste 16 Noroeste 0 949 1.4 53
2017-11-09 20:00:00 6.6 5 Noroeste 14 Norte 0 948.8 1.1 55
2017-11-09 19:00:00 7.1 5 Norte 11 Norte 0 948.5 0.9 53
2017-11-09 18:00:00 10.1 5 Norte 22 Nordeste 0 947.6 0 41
2017-11-09 17:00:00 12.1 13 Nordeste 31 Nordeste 0 947.7 0.1 32
2017-11-09 16:00:00 12.8 13 Nordeste 33 Nordeste 0 947.6 -0.4 32
2017-11-09 15:00:00 13.2 11 Nordeste 35 Nordeste 0 947.6 -0.9 32
2017-11-09 14:00:00 13.5 16 Nordeste 34 Nordeste 0 947.6 -1 29
2017-11-09 13:00:00 13.5 16 Nordeste 33 Norte 0 948 -0.6 29
2017-11-09 12:00:00 12.8 16 Nordeste 36 Nordeste 0 948.5 0 30
2017-11-09 11:00:00 12.5 13 Nordeste 33 Nordeste 0 948.6 0.7 31
2017-11-09 10:00:00 11 12 Nordeste 24 Nordeste 0 948.6 1.3 33
2017-11-09 09:00:00 7.5 3 Norte 12 Sur 0 948.5 1.5 50
2017-11-09 08:00:00 2.1 4 Oeste 10 Sudoeste 0 947.9 0.7 70
2017-11-09 07:00:00 2.5 6 Oeste 9 Sudoeste 0 947.3 0 68
2017-11-09 06:00:00 4.6 5 Noroeste 12 Este 0 947 0 60
2017-11-09 05:00:00 6.7 4 Este 15 Norte 0 947.2 0.3 53
2017-11-09 04:00:00 9 6 Norte 15 Norte 0 947.3 0.2 44
2017-11-09 03:00:00 9.8 6 Norte 16 Noroeste 0 947 -0.2 41
2017-11-09 02:00:00 10.6 6 Noroeste 17 Norte 0 946.9 -0.2 39
2017-11-09 01:00:00 11.1 5 Nordeste 17 Norte 0 947.1 0.4 35
2017-11-09 00:00:00 11.6 4 Nordeste 16 Norte 0 947.2 0.8 35
2017-11-08 23:00:00 12.2 6 Nordeste 17 Nordeste 0 947.1 1.1 32
2017-11-08 22:00:00 12.4 8 Nordeste 18 Nordeste 0 946.7 1.2 38
2017-11-08 21:00:00 12.8 8 Nordeste 18 Nordeste 0 946.4 1.4 42
2017-11-08 20:00:00 12.9 4 Nordeste 11 Nordeste 0 946 1.2 45
2017-11-08 19:00:00 13.3 6 Norte 12 Norte 0 945.5 0.9 44
2017-11-08 18:00:00 14 5 Norte 20 Nordeste 0 945 0.3 45
2017-11-08 17:00:00 16.2 9 Nordeste 22 Nordeste 0 944.8 -0.3 36
2017-11-08 16:00:00 17.1 8 Nordeste 24 Nordeste 0 944.6 -1.5 34
2017-11-08 15:00:00 17.8 8 Nordeste 24 Nordeste 0 944.7 -2.1 31
2017-11-08 14:00:00 18.4 9 Este 21 Nordeste 0 945.1 -1.9 31
2017-11-08 13:00:00 17.9 11 Este 24 Nordeste 0 946.1 -0.9 30
2017-11-08 12:00:00 17.1 7 Este 14 Este 0 946.8 -0.2 31
2017-11-08 11:00:00 15.5 6 Nordeste 11 Nordeste 0 947 0.6 31
2017-11-08 10:00:00 13.7 5 Sudoeste 12 Sudoeste 0 947 0.7 35
2017-11-08 09:00:00 8 7 Sudoeste 16 Oeste 0 947 1.2 50
2017-11-08 08:00:00 4.3 13 Oeste 18 Sudoeste 0 946.4 0.9 60
2017-11-08 07:00:00 2.4 4 Oeste 9 Sudoeste 0 946.3 1 71
2017-11-08 06:00:00 4.5 7 Noroeste 21 Oeste 0 945.8 0.2 61
2017-11-08 05:00:00 4.7 4 Noroeste 23 Sudoeste 0 945.5 -0.1 61
2017-11-08 04:00:00 6.6 10 Oeste 18 Oeste 0 945.3 -0.6 49
2017-11-08 03:00:00 8 7 Oeste 23 Oeste 0 945.6 0 44
2017-11-08 02:00:00 8.2 11 Sudoeste 20 Oeste 0 945.6 0 43
2017-11-08 01:00:00 8.2 13 Sudoeste 24 Sudoeste 0 945.9 0.6 42
2017-11-08 00:00:00 7.9 15 Sudoeste 21 Sudoeste 0 945.6 0.7 41
2017-11-07 23:00:00 8.2 6 Este 19 Oeste 0 945.6 0.9 39
2017-11-07 22:00:00 6.7 6 Noroeste 16 Oeste 0 945.3 1 47
2017-11-07 21:00:00 6.9 2 Oeste 13 Noroeste 0 944.9 1.4 43
2017-11-07 20:00:00 8.6 8 Noroeste 12 Noroeste 0 944.7 1.6 36
2017-11-07 19:00:00 9.7 4 Noroeste 7 Oeste 0 944.3 1.5 31
2017-11-07 18:00:00 14.4 5 Norte 15 Nordeste 0 943.5 0.8 22
2017-11-07 17:00:00 18.1 9 Nordeste 17 Nordeste 0 943.1 0 12
2017-11-07 16:00:00 18.7 6 Sudoeste 10 Sudoeste 0 942.8 -0.7 16
2017-11-07 15:00:00 17.9 4 Sur 12 Sudeste 0 942.7 -1.7 19
2017-11-07 14:00:00 18 8 Sudeste 14 Sudeste 0 943.1 -1.8 18
2017-11-07 13:00:00 17.1 6 Sudeste 15 Este 0 943.5 -1.6 21
2017-11-07 12:00:00 15.2 4 Oeste 12 Sudeste 0 944.4 -0.5 23
2017-11-07 11:00:00 13.2 5 Sudeste 12 Oeste 0 944.9 0.6 29
2017-11-07 10:00:00 10.4 6 Sudoeste 11 Sudoeste 0 945.1 1.6 38
2017-11-07 09:00:00 7 6 Sudoeste 16 Oeste 0 944.9 1.5 52
2017-11-07 08:00:00 0.7 2 Sudoeste 12 Oeste 0 944.3 1 78
2017-11-07 07:00:00 1.6 8 Oeste 14 Oeste 0 943.5 0.2 73
2017-11-07 06:00:00 0.6 6 Oeste 13 Oeste 0 943.4 -0.3 76
2017-11-07 05:00:00 1.5 4 Sudoeste 14 Sudoeste 0 943.3 -0.9 73
2017-11-07 04:00:00 2.2 5 Oeste 10 Noroeste 0 943.3 -1.3 73
2017-11-07 03:00:00 3.1 4 Noroeste 10 Noroeste 0 943.7 -0.7 70
2017-11-07 02:00:00 4.6 4 Sudoeste 10 Noroeste 0 944.2 -0.7 63
2017-11-07 01:00:00 5 4 Norte 10 Oeste 0 944.6 0.1 66
2017-11-07 00:00:00 6 4 Noroeste 14 Oeste 0 944.4 0 61
2017-11-06 23:00:00 7 4 Norte 19 Este 0 944.9 0.5 58
2017-11-06 22:00:00 10.4 4 Este 22 Sudoeste 0 944.5 0.6 43
2017-11-06 21:00:00 9 4 Sudoeste 10 Oeste 0 944.4 0.2 49
2017-11-06 20:00:00 11.3 6 Norte 28 Norte 0 944.4 0.4 41
2017-11-06 19:00:00 11.6 12 Norte 26 Norte 0 943.9 -0.3 41
2017-11-06 18:00:00 11.9 3 Norte 22 Nordeste 0 944.2 -0.3 41
2017-11-06 17:00:00 14.4 11 Nordeste 31 Nordeste 0 944 -1.1 32
2017-11-06 16:00:00 15.1 14 Nordeste 31 Nordeste 0 944.2 -2.1 29
2017-11-06 15:00:00 16.2 15 Nordeste 33 Nordeste 0 944.5 -2.9 23
2017-11-06 14:00:00 16.6 10 Nordeste 30 Nordeste 0 945.1 -2.7 24
2017-11-06 13:00:00 16.1 13 Norte 30 Noroeste 0 946.3 -1.8 27
2017-11-06 12:00:00 15.1 14 Norte 33 Norte 0 947.4 -0.7 31
2017-11-06 11:00:00 14.4 10 Noroeste 32 Noroeste 0 947.8 0.1 34
2017-11-06 10:00:00 13.8 8 Norte 22 Norte 0 948.1 0.6 35
2017-11-06 09:00:00 12.4 6 Nordeste 22 Nordeste 0 948.1 0.5 39
2017-11-06 08:00:00 8.1 3 Norte 19 Noroeste 0 947.7 0.3 53
2017-11-06 07:00:00 8.5 4 Noroeste 16 Noroeste 0 947.5 0.1 51
2017-11-06 06:00:00 9.4 9 Norte 18 Norte 0 947.6 -0.3 48
2017-11-06 05:00:00 9.2 5 Noroeste 20 Norte 0 947.4 -0.6 46
2017-11-06 04:00:00 9.3 5 Oeste 15 Noroeste 0 947.4 -0.8 48
2017-11-06 03:00:00 10.6 6 Oeste 30 Noroeste 0 947.9 -0.5 42
2017-11-06 02:00:00 11 8 Noroeste 26 Norte 0 948 -0.3 40
2017-11-06 01:00:00 11.4 8 Norte 32 Norte 0 948.2 0.1 39
2017-11-06 00:00:00 10.7 8 Norte 26 Noroeste 0 948.4 0.9 44
2017-11-05 23:00:00 8.5 4 Noroeste 15 Norte 0 948.3 1.4 58
2017-11-05 22:00:00 9.6 5 Norte 16 Noroeste 0 948.1 1.9 56
2017-11-05 21:00:00 10.6 4 Noroeste 12 Norte 0 947.5 2 56
2017-11-05 20:00:00 11.2 3 Noroeste 16 Norte 0 946.9 1.9 59
2017-11-05 19:00:00 13.6 6 Norte 18 Norte 0 946.2 1.6 49
2017-11-05 18:00:00 15.7 4 Noroeste 22 Noroeste 0 945.5 1.2 41
2017-11-05 17:00:00 17.4 6 Noroeste 28 Oeste 0 945 0.7 36
2017-11-05 16:00:00 18.4 13 Noroeste 38 Oeste 0 944.6 0 33
2017-11-05 15:00:00 20.2 10 Oeste 30 Norte 0 944.3 -0.8 32
2017-11-05 14:00:00 19.6 10 Noroeste 26 Norte 0 944.3 -0.9 33
2017-11-05 13:00:00 19.7 12 Noroeste 26 Noroeste 0 944.6 -0.5 32
2017-11-05 12:00:00 19.4 8 Norte 28 Norte 0 945.1 0.5 34
2017-11-05 11:00:00 18.8 7 Norte 23 Norte 0 945.2 1.1 38
2017-11-05 10:00:00 16.6 8 Norte 22 Norte 0 945.1 2 46
2017-11-05 09:00:00 14.2 3 Sudeste 9 Oeste 0 944.6 1.8 64
2017-11-05 08:00:00 11.6 4 Oeste 33 Oeste 0 944.1 1.6 71
2017-11-05 07:00:00 13.1 15 Oeste 34 Oeste 0 943.1 0.6 67
2017-11-05 06:00:00 8.1 4 Noroeste 11 Noroeste 0 942.8 0.3 89
2017-11-05 05:00:00 8 3 Nordeste 10 Sudoeste 0 942.5 0.6 88
2017-11-05 04:00:00 8.7 5 Oeste 9 Noroeste 0 942.5 0.1 87
2017-11-05 03:00:00 10.1 5 Oeste 26 Oeste 0 942.5 0.6 81
2017-11-05 02:00:00 12.5 15 Oeste 23 Oeste 0 941.9 0.4 75
2017-11-05 01:00:00 9.3 6 Oeste 10 Noroeste 0 942.4 1.5 85
2017-11-05 00:00:00 8.8 3 Oeste 6 Noroeste 0 941.9 1.4 82
2017-11-04 23:00:00 10.9 5 Este 13 Noroeste 0 941.5 1.1 75
2017-11-04 22:00:00 11.6 6 Noroeste 15 Sudoeste 0 940.9 1.1 73
2017-11-04 21:00:00 11.7 6 Sudoeste 14 Oeste 0 940.5 1.5 75
2017-11-04 20:00:00 12.8 5 Oeste 19 Oeste 0 940.4 1.7 71
2017-11-04 19:00:00 13.7 11 Oeste 18 Sudoeste 0 939.8 1.4 70
2017-11-04 18:00:00 15.5 9 Sudoeste 31 Sudoeste 0 939 0.5 61
2017-11-04 17:00:00 17.3 15 Oeste 32 Oeste 0 938.7 -0.1 50
2017-11-04 16:00:00 18.7 21 Oeste 33 Oeste 0 938.4 -1.1 45
2017-11-04 15:00:00 18 14 Sudoeste 37 Oeste 0.2 938.5 -2.2 48
2017-11-04 14:00:00 16 17 Sudoeste 38 Sudoeste 0 938.8 -1.5 57
2017-11-04 13:00:00 14.7 15 Sudoeste 36 Sudoeste 0 939.5 -0.6 61
2017-11-04 12:00:00 15.6 17 Sudoeste 33 Sudoeste 0 940.7 0.8 56
2017-11-04 11:00:00 16.7 12 Sudoeste 23 Sudoeste 0 940.3 1 55
2017-11-04 10:00:00 15.9 9 Sudoeste 17 Sudoeste 0 940.1 1.3 58
2017-11-04 09:00:00 14.3 6 Oeste 15 Sudoeste 0 939.9 1 62
2017-11-04 08:00:00 11.5 6 Oeste 21 Sudoeste 0 939.3 0.7 71
2017-11-04 07:00:00 12 12 Sudoeste 20 Sudoeste 0 938.8 0.2 69
2017-11-04 06:00:00 12.1 11 Oeste 20 Sudoeste 0 938.9 0.1 70
2017-11-04 05:00:00 13.7 11 Sudoeste 29 Oeste 0 938.6 -1.4 66
2017-11-04 04:00:00 14.6 17 Sudoeste 28 Oeste 0 938.6 -1.7 63
2017-11-04 03:00:00 14.6 10 Sudoeste 19 Sudoeste 0 938.8 -1.5 66
2017-11-04 02:00:00 13.7 5 Oeste 13 Oeste 0 940 0.3 84
2017-11-04 01:00:00 15 10 Sudoeste 19 Sudoeste 0 940.3 0.3 77
2017-11-04 00:00:00 12.6 3 Noroeste 7 Oeste 0 940.3 0.3 84
2017-11-03 23:00:00 14 8 Oeste 12 Oeste 0 939.7 -0.3 76
2017-11-03 22:00:00 14.9 6 Oeste 14 Oeste 0 940 0.3 80
2017-11-03 21:00:00 15.3 4 Sudoeste 15 Oeste 0 940 0.6 78
2017-11-03 20:00:00 16.2 6 Sudoeste 17 Sudoeste 0 940 0.7 72
2017-11-03 19:00:00 14.8 5 Oeste 9 Sudoeste 0 939.7 0.2 70
2017-11-03 18:00:00 16.5 3 Noroeste 5 Este 0 939.4 -0.4 69
2017-11-03 17:00:00 18.7 5 Este 10 Este 0 939.3 -1.1 55
2017-11-03 16:00:00 19.1 5 Este 11 Este 0 939.5 -1.6 51
2017-11-03 15:00:00 19.2 8 Sudeste 17 Este 0 939.8 -1.9 51
2017-11-03 14:00:00 18.7 7 Este 22 Este 0 940.4 -1.9 59
2017-11-03 13:00:00 18.6 10 Nordeste 19 Nordeste 0 941.1 -1.2 54
2017-11-03 12:00:00 17.9 5 Este 13 Este 0 941.7 -0.1 65
2017-11-03 11:00:00 15.8 4 Este 8 Este 0 942.3 0.9 73
2017-11-03 10:00:00 13.2 4 Sur 7 Sudeste 0 942.3 1.2 82
2017-11-03 09:00:00 10.9 0 Calma 7 Sudoeste 0 941.8 0.3 86
2017-11-03 08:00:00 10.4 4 Noroeste 11 Sudoeste 0 941.4 -0.5 86
2017-11-03 07:00:00 11.2 10 Oeste 16 Oeste 0 941.1 -1 81
2017-11-03 06:00:00 11.4 7 Oeste 15 Sudoeste 0 941.5 -1.3 83
2017-11-03 05:00:00 11.5 8 Oeste 15 Sudoeste 0 941.9 -1.2 85
2017-11-03 04:00:00 10.5 4 Sudoeste 15 Oeste 0 942.1 -1.3 85
2017-11-03 03:00:00 12.3 6 Sudoeste 18 Oeste 0 942.8 -1 86
2017-11-03 02:00:00 12.1 10 Oeste 17 Oeste 0 943.1 -1.1 89
2017-11-03 01:00:00 11.6 11 Oeste 19 Oeste 0 943.4 -0.8 89
2017-11-03 00:00:00 10.5 8 Oeste 14 Oeste 0 943.8 -0.3 82
2017-11-02 23:00:00 10.8 3 Oeste 10 Oeste 0 944.2 0.2 85
2017-11-02 22:00:00 13 8 Sudoeste 13 Sudoeste 0 944.2 0.6 80
2017-11-02 21:00:00 12.1 7 Oeste 10 Oeste 0 944.1 0.6 86
2017-11-02 20:00:00 12.8 4 Noroeste 8 Noroeste 0 944 0.5 83
2017-11-02 19:00:00 14 6 Noroeste 8 Noroeste 0 943.6 0 80
2017-11-02 18:00:00 16.4 4 Noroeste 15 Este 0 943.5 -0.1 72
2017-11-02 17:00:00 18.5 10 Este 19 Este 0 943.5 -0.6 63
2017-11-02 16:00:00 19.9 9 Este 19 Este 0 943.6 -1.4 56
2017-11-02 15:00:00 20.5 10 Este 19 Este 0 943.6 -2.5 53
2017-11-02 14:00:00 20.6 9 Sudeste 17 Este 0 944.1 -2.3 49
2017-11-02 13:00:00 21.6 6 Sudeste 21 Sudoeste 0 945 -1.6 47
2017-11-02 12:00:00 19.3 9 Sudoeste 19 Sudoeste 0 946.1 -0.6 51
2017-11-02 11:00:00 18.7 8 Sudoeste 17 Sudoeste 0 946.4 0.1 53
2017-11-02 10:00:00 17 7 Sudoeste 15 Sudoeste 0 946.6 0.5 60
2017-11-02 09:00:00 12.2 8 Sudoeste 16 Sudoeste 0 946.7 0.6 73
2017-11-02 08:00:00 10.1 8 Sudoeste 15 Sudoeste 0 946.3 0.1 84
2017-11-02 07:00:00 10.4 8 Sudoeste 13 Sudoeste 0 946.1 -0.5 84
2017-11-02 06:00:00 12.3 7 Sudoeste 22 Sudoeste 0 946.1 -0.9 78
2017-11-02 05:00:00 12.4 11 Oeste 24 Oeste 0 946.2 -0.8 79
2017-11-02 04:00:00 10.3 6 Oeste 17 Sudoeste 0 946.6 -0.7 88
2017-11-02 03:00:00 11.4 9 Sudoeste 16 Sudoeste 0 947 -0.6 86
2017-11-02 02:00:00 12.1 8 Sudoeste 13 Sudoeste 0 947 -0.9 89
2017-11-02 01:00:00 11.7 6 Sudoeste 9 Sudoeste 0 947.3 -0.4 86
2017-11-02 00:00:00 13.8 5 Sudoeste 13 Sudoeste 0 947.6 0.1 80
2017-11-01 23:00:00 14.7 6 Sudoeste 13 Oeste 0 947.9 0.6 80
2017-11-01 22:00:00 14.6 6 Sudoeste 19 Oeste 0 947.7 0.8 81
2017-11-01 21:00:00 14.8 12 Oeste 19 Oeste 0 947.5 1.2 80
2017-11-01 20:00:00 15.1 6 Oeste 14 Oeste 0 947.3 1.2 79
2017-11-01 19:00:00 16.7 3 Noroeste 6 Noroeste 0 946.9 0.8 74
2017-11-01 18:00:00 17.7 4 Este 20 Este 0 946.3 0 68
2017-11-01 17:00:00 19 10 Este 22 Este 0 946.1 -0.9 66
2017-11-01 16:00:00 19.4 6 Este 25 Este 0 946.1 -1.5 62
2017-11-01 15:00:00 19.8 11 Este 20 Este 0 946.3 -2.2 61
2017-11-01 14:00:00 19.7 10 Este 19 Nordeste 0 947 -2 60
2017-11-01 13:00:00 19.6 8 Este 14 Sudoeste 0 947.6 -1.4 57
2017-11-01 12:00:00 19.6 6 Sudoeste 17 Sudoeste 0 948.5 -0.3 56
2017-11-01 11:00:00 17.2 3 Este 6 Sudeste 0 949 0.8 64
2017-11-01 10:00:00 14.8 5 Sudeste 14 Oeste 0 949 1.2 73
2017-11-01 09:00:00 12.7 5 Sudoeste 13 Oeste 0 948.8 1.3 82
2017-11-01 08:00:00 9.3 3 Noroeste 10 Oeste 0 948.2 0.5 88
2017-11-01 07:00:00 10 6 Noroeste 14 Oeste 0 947.8 0 87
2017-11-01 06:00:00 11.5 6 Oeste 12 Oeste 0 947.5 -0.5 84
2017-11-01 05:00:00 11.1 4 Oeste 10 Oeste 0 947.7 -0.3 85
2017-11-01 04:00:00 12.8 4 Sur 5 Sur 0 947.8 -0.5 81
2017-11-01 03:00:00 13.7 2 Norte 5 Este 0 948 -0.4 80
2017-11-01 02:00:00 14.1 3 Sudoeste 9 Sudoeste 0 948 -0.4 77
2017-11-01 01:00:00 14.3 9 Sudoeste 13 Oeste 0 948.3 0.1 75
2017-11-01 00:00:00 13.4 6 Oeste 9 Oeste 0 948.4 0.5 80
2017-10-31 23:00:00 12.9 3 Noroeste 8 Norte 0 948.4 1.1 83
2017-10-31 22:00:00 13.1 4 Norte 9 Nordeste 0 948.2 1.5 81
2017-10-31 21:00:00 14.4 5 Norte 9 Nordeste 0 947.9 1.8 74
2017-10-31 20:00:00 14.8 4 Nordeste 6 Nordeste 0 947.3 1.5 76
2017-10-31 19:00:00 15.3 3 Nordeste 9 Nordeste 0 946.7 1 71
2017-10-31 18:00:00 16.4 3 Nordeste 17 Este 0 946.1 0.3 66
2017-10-31 17:00:00 18.6 8 Este 17 Este 0 945.8 -0.4 58
2017-10-31 16:00:00 18.7 10 Este 19 Este 0 945.7 -1 59
2017-10-31 15:00:00 19.5 7 Nordeste 17 Este 0 945.8 -1.4 55
2017-10-31 14:00:00 20.1 5 Este 17 Este 0 946.2 -1.4 55
2017-10-31 13:00:00 18.7 8 Este 17 Nordeste 0 946.7 -0.8 61
2017-10-31 12:00:00 19.4 5 Este 15 Nordeste 0 947.2 0.5 56
2017-10-31 11:00:00 17.9 3 Sur 13 Este 0 947.6 1.6 61
2017-10-31 10:00:00 17.2 3 Sudeste 9 Sudeste 0 947.5 2 63
2017-10-31 09:00:00 12.7 4 Sudoeste 10 Sudoeste 0 946.7 1.8 85
2017-10-31 08:00:00 8.4 4 Oeste 8 Oeste 0 946 1.1 90
2017-10-31 07:00:00 9.4 4 Noroeste 12 Oeste 0 945.5 0.7 88
2017-10-31 06:00:00 9.8 3 Sudoeste 12 Sudoeste 0 944.9 0 88
2017-10-31 05:00:00 9.3 4 Oeste 9 Sudoeste 0 944.9 0.2 90
2017-10-31 04:00:00 10.1 2 Sudoeste 8 Sudoeste 0 944.8 0 90
2017-10-31 03:00:00 9.3 6 Sudoeste 8 Sudoeste 0 944.9 0 89
2017-10-31 02:00:00 9.6 4 Noroeste 11 Oeste 0 944.7 -0.1 85
2017-10-31 01:00:00 10.5 5 Oeste 7 Oeste 0 944.8 0.5 84
2017-10-31 00:00:00 12 4 Oeste 10 Oeste 0 944.9 1.1 77
2017-10-30 23:00:00 13.6 7 Oeste 16 Oeste 0 944.8 1.5 72
2017-10-30 22:00:00 14.8 9 Sudoeste 14 Sudoeste 0 944.3 1.7 68
2017-10-30 21:00:00 15.6 9 Oeste 19 Oeste 0 943.8 2 65
2017-10-30 20:00:00 16 7 Oeste 13 Oeste 0 943.3 2 64
2017-10-30 19:00:00 17.5 5 Noroeste 15 Este 0 942.6 1.3 65
2017-10-30 18:00:00 18.7 7 Este 15 Este 0 941.8 0.6 59
2017-10-30 17:00:00 20.3 8 Nordeste 22 Este 0 941.3 -0.3 54
2017-10-30 16:00:00 21.1 10 Nordeste 23 Nordeste 0 941.3 -1 52
2017-10-30 15:00:00 21.7 10 Este 21 Este 0 941.2 -1.8 49
2017-10-30 14:00:00 22.1 6 Sudeste 17 Nordeste 0 941.6 -1.9 48
2017-10-30 13:00:00 21.6 3 Este 16 Este 0 942.3 -1.2 48
2017-10-30 12:00:00 20.6 8 Este 14 Este 0 943 -0.2 53
2017-10-30 11:00:00 19.5 6 Este 11 Este 0 943.5 0.5 53
2017-10-30 10:00:00 17.4 3 Este 14 Sudoeste 0 943.5 0.7 58
2017-10-30 09:00:00 12.9 10 Sudoeste 22 Sudoeste 0 943.2 0.4 70
2017-10-30 08:00:00 10.1 15 Oeste 23 Oeste 0 943 0.2 81
2017-10-30 07:00:00 8.9 7 Oeste 18 Sudoeste 0 942.8 -0.2 84
2017-10-30 06:00:00 10 10 Sudoeste 20 Sudoeste 0 942.8 -0.5 85
2017-10-30 05:00:00 9.8 5 Oeste 20 Sudoeste 0 942.8 -0.9 85
2017-10-30 04:00:00 10.2 9 Oeste 18 Oeste 0 943 -1.1 86
2017-10-30 03:00:00 10.6 9 Oeste 20 Oeste 0 943.3 -1 84
2017-10-30 02:00:00 11.3 12 Oeste 21 Oeste 0 943.7 -0.9 83
2017-10-30 01:00:00 11.5 6 Oeste 14 Sudoeste 0 944.1 -0.8 84
2017-10-30 00:00:00 12.6 8 Sudoeste 19 Sudoeste 0 944.3 -0.7 81
2017-10-29 23:00:00 13.5 10 Oeste 17 Oeste 0 944.6 -0.4 78
2017-10-29 22:00:00 14.6 8 Oeste 14 Oeste 0 944.9 0.1 77
2017-10-29 21:00:00 15.4 8 Oeste 15 Oeste 0 945 0.5 76
2017-10-29 20:00:00 15.6 9 Oeste 17 Oeste 0 945 0.6 75
2017-10-29 19:00:00 15.9 5 Noroeste 9 Este 0 944.8 0 72
2017-10-29 18:00:00 19 9 Este 17 Nordeste 0 944.5 -0.6 60
2017-10-29 17:00:00 20.8 8 Este 15 Este 0 944.4 -1.3 54
2017-10-29 16:00:00 21.4 9 Este 18 Nordeste 0 944.8 -1.8 53
2017-10-29 15:00:00 21.7 9 Nordeste 21 Este 0 945.1 -2.3 50
2017-10-29 14:00:00 22.1 6 Nordeste 15 Sudeste 0 945.7 -2.2 47
2017-10-29 13:00:00 20.6 4 Este 17 Sur 0 946.6 -1.7 54
2017-10-29 12:00:00 21.8 7 Sudoeste 17 Sudoeste 0 947.4 -0.8 49
2017-10-29 11:00:00 20.2 6 Sudoeste 17 Sur 0 947.9 -0.2 56
2017-10-29 10:00:00 17.1 6 Sudoeste 14 Sudoeste 0 948.3 0.5 65
2017-10-29 09:00:00 13.3 8 Oeste 19 Oeste 0 948.2 0.3 74
2017-10-29 08:00:00 10.2 13 Oeste 19 Oeste 0 948.1 0.4 85
2017-10-29 07:00:00 9.6 3 Sudoeste 21 Oeste 0 947.8 0 86
2017-10-29 06:00:00 9.9 13 Oeste 22 Oeste 0 947.9 -0.2 84
2017-10-29 05:00:00 10.6 14 Oeste 24 Oeste 0 947.7 -0.7 84
2017-10-29 04:00:00 11.2 14 Oeste 21 Sudoeste 0 947.8 -1.1 83
2017-10-29 03:00:00 12 15 Sudoeste 23 Oeste 0 948.1 -1.2 82
2017-10-29 02:00:00 13.7 10 Sudoeste 16 Sudoeste 0 948.4 -1.2 83
2017-10-29 01:00:00 15.5 8 Sudoeste 18 Sudoeste 0 949.3 -0.5 76
2017-10-29 00:00:00 16.4 9 Oeste 18 Oeste 0 949.6 0.1 74
2017-10-28 23:00:00 17 9 Oeste 21 Oeste 0 949.8 0.7 72
2017-10-28 22:00:00 17.3 10 Oeste 21 Sudoeste 0 949.8 1.3 68
2017-10-28 21:00:00 17.9 9 Oeste 16 Oeste 0 949.5 1.2 65
2017-10-28 20:00:00 18.1 4 Nordeste 7 Nordeste 0 949.1 0.9 67
2017-10-28 19:00:00 19.6 4 Nordeste 19 Nordeste 0 948.5 -0.1 60
2017-10-28 18:00:00 20.6 9 Este 21 Nordeste 0 948.3 -0.6 56
2017-10-28 17:00:00 21.6 10 Este 21 Este 0 948.2 -1.6 55
2017-10-28 16:00:00 22.2 10 Este 21 Este 0 948.6 -2.3 50
2017-10-28 15:00:00 22.6 7 Este 13 Nordeste 0 948.9 -2.5 47
2017-10-28 14:00:00 22.7 4 Sur 14 Este 0 949.8 -1.8 48
2017-10-28 13:00:00 20.6 4 Sudeste 13 Este 0 950.9 -0.3 60
2017-10-28 12:00:00 18.4 5 Nordeste 16 Este 0 951.4 0.5 69
2017-10-28 11:00:00 17 8 Este 14 Este 0 951.6 1.2 75
2017-10-28 10:00:00 15.9 3 Nordeste 11 Noroeste 0 951.2 1 80
2017-10-28 09:00:00 12.7 4 Noroeste 9 Norte 0 950.9 0.9 89
2017-10-28 08:00:00 11 4 Noroeste 10 Norte 0 950.4 0.7 80
2017-10-28 07:00:00 10.5 5 Noroeste 8 Norte 0 950.2 0.5 69
2017-10-28 06:00:00 10.8 6 Norte 12 Norte 0 950 0 52
2017-10-28 05:00:00 10.5 3 Noroeste 7 Sudoeste 0 949.7 -0.2 52
2017-10-28 04:00:00 11.5 5 Oeste 13 Sudoeste 0 949.7 -0.3 50
2017-10-28 03:00:00 12 4 Sudoeste 13 Sudoeste 0 950 -0.3 49
2017-10-28 02:00:00 13.1 4 Noroeste 16 Oeste 0 949.9 -0.5 47
2017-10-28 01:00:00 17 13 Sudoeste 24 Sudoeste 0 950 -0.3 30
2017-10-28 00:00:00 17.6 15 Sudoeste 25 Oeste 0 950.3 0 28
2017-10-27 23:00:00 17.1 13 Oeste 22 Oeste 0 950.4 0.4 29
2017-10-27 22:00:00 17.7 14 Oeste 21 Sudoeste 0 950.3 0.3 28
2017-10-27 21:00:00 18.4 5 Oeste 15 Oeste 0 950.3 0.3 28
2017-10-27 20:00:00 20.8 6 Oeste 14 Oeste 0 950 -0.1 24
2017-10-27 19:00:00 22.6 10 Noroeste 14 Noroeste 0 950 -0.6 22
2017-10-27 18:00:00 27 5 Sudeste 16 Sudeste 0 950 -1.3 16
2017-10-27 17:00:00 27.6 9 Este 18 Este 0 950.1 -1.9 14
2017-10-27 16:00:00 28 11 Este 19 Nordeste 0 950.6 -2.3 14
2017-10-27 15:00:00 28.4 11 Este 20 Este 0 951.3 -2.1 16
2017-10-27 14:00:00 27.9 8 Este 15 Este 0 952 -1.6 16
2017-10-27 13:00:00 27.2 6 Este 11 Sudeste 0 952.9 -0.4 18
2017-10-27 12:00:00 24.9 4 Este 9 Sudeste 0 953.4 0.3 18
2017-10-27 11:00:00 20.5 7 Sudoeste 12 Sudoeste 0 953.6 0.6 19
2017-10-27 10:00:00 15.3 11 Oeste 21 Oeste 0 953.3 0.5 27
2017-10-27 09:00:00 10.9 13 Oeste 19 Oeste 0 953.1 0.3 34
2017-10-27 08:00:00 7.6 3 Oeste 26 Oeste 0 953 -0.1 57
2017-10-27 07:00:00 10.2 15 Oeste 24 Oeste 0 952.8 -0.6 42
2017-10-27 06:00:00 10.7 14 Sudoeste 24 Sudoeste 0 952.8 -0.9 46
2017-10-27 05:00:00 10.7 16 Oeste 23 Sudoeste 0 953.1 -0.9 48
2017-10-27 04:00:00 11.6 11 Oeste 21 Sudoeste 0 953.4 -0.8 46
2017-10-27 03:00:00 10.3 10 Sudoeste 19 Oeste 0 953.7 -0.7 54
2017-10-27 02:00:00 11.8 9 Oeste 19 Oeste 0 954 -0.3 50
2017-10-27 01:00:00 12.2 11 Oeste 17 Sudoeste 0 954.2 0.3 52
2017-10-27 00:00:00 12 8 Oeste 13 Sudoeste 0 954.4 0.8 57
2017-10-26 23:00:00 12.8 3 Noroeste 11 Sudoeste 0 954.3 1.2 57
2017-10-26 22:00:00 14.5 6 Sudoeste 10 Oeste 0 953.9 1.4 51
2017-10-26 21:00:00 16.4 6 Oeste 11 Oeste 0 953.6 1.5 48
2017-10-26 20:00:00 17.4 6 Noroeste 12 Norte 0 953.1 1.2 47
2017-10-26 19:00:00 21 5 Norte 17 Este 0 952.5 0.7 41
2017-10-26 18:00:00 24.4 10 Este 16 Nordeste 0 952.1 0 30
2017-10-26 17:00:00 25.8 8 Este 15 Este 0 951.9 -0.8 26
2017-10-26 16:00:00 26.5 8 Este 15 Nordeste 0 951.8 -1.4 24
2017-10-26 15:00:00 26.6 7 Este 17 Este 0 952.1 -1.2 22
2017-10-26 14:00:00 25.7 7 Este 16 Este 0 952.7 -0.7 24
2017-10-26 13:00:00 24.3 11 Este 16 Este 0 953.2 0 26
2017-10-26 12:00:00 24.5 8 Sur 17 Sur 0 953.3 0.4 23
2017-10-26 11:00:00 20.8 4 Sur 15 Sudoeste 0 953.4 0.9 32
2017-10-26 10:00:00 14.3 9 Sudoeste 22 Sudoeste 0 953.2 0.8 42
2017-10-26 09:00:00 10.2 14 Oeste 25 Oeste 0 952.9 0.7 51
2017-10-26 08:00:00 9.1 10 Oeste 21 Oeste 0 952.5 0.4 55
2017-10-26 07:00:00 8.2 7 Oeste 16 Sudoeste 0 952.4 0.1 64
2017-10-26 06:00:00 7.8 6 Oeste 13 Sudoeste 0 952.2 -0.2 68
2017-10-26 05:00:00 8.3 6 Oeste 16 Oeste 0 952.1 -0.5 67
2017-10-26 04:00:00 9 5 Oeste 18 Oeste 0 952.3 -0.4 65
2017-10-26 03:00:00 9.6 3 Noroeste 18 Sudoeste 0 952.4 -0.1 64
2017-10-26 02:00:00 11.7 10 Oeste 16 Oeste 0 952.6 0.5 55
2017-10-26 01:00:00 12.2 5 Oeste 19 Oeste 0 952.7 0.9 57
2017-10-26 00:00:00 13.9 4 Sudoeste 17 Sudoeste 0 952.5 1.1 50
2017-10-25 23:00:00 15.8 9 Sudoeste 16 Sudoeste 0 952.1 1.2 47
2017-10-25 22:00:00 17.7 9 Sudoeste 16 Oeste 0 951.8 1.3 44
2017-10-25 21:00:00 19.1 10 Oeste 19 Oeste 0 951.4 1.5 38
2017-10-25 20:00:00 20.4 12 Oeste 22 Oeste 0 950.9 1.3 33
2017-10-25 19:00:00 22.1 7 Oeste 22 Sudoeste 0 950.5 0.8 30
2017-10-25 18:00:00 24.9 10 Sur 23 Sudoeste 0 949.9 -0.2 25
2017-10-25 17:00:00 26.1 13 Sur 26 Sur 0 949.6 -1.2 22
2017-10-25 16:00:00 26.6 11 Sur 24 Sur 0 949.7 -1.4 23
2017-10-25 15:00:00 26.9 13 Sur 27 Sur 0 950.1 -1.2 22
2017-10-25 14:00:00 26.7 13 Sur 26 Sur 0 950.8 -0.4 23
2017-10-25 13:00:00 26 9 Sur 22 Sudoeste 0 951.1 0.2 25
2017-10-25 12:00:00 24 9 Sur 18 Sur 0 951.3 0.7 28
2017-10-25 11:00:00 20.5 8 Sudoeste 20 Sudoeste 0 951.2 0.9 35
2017-10-25 10:00:00 14.7 7 Oeste 23 Sudoeste 0 950.9 0.7 48
2017-10-25 09:00:00 9.2 7 Oeste 15 Oeste 0 950.6 0.6 70
2017-10-25 08:00:00 8.2 6 Oeste 22 Oeste 0 950.3 0.1 71
2017-10-25 07:00:00 10.3 15 Sudoeste 23 Sudoeste 0 950.2 -0.3 59
2017-10-25 06:00:00 10.3 13 Oeste 21 Oeste 0 950 -0.4 60
2017-10-25 05:00:00 7.8 4 Oeste 10 Oeste 0 950.2 -0.3 76
2017-10-25 04:00:00 8.6 2 Oeste 10 Oeste 0 950.5 -0.3 75
2017-10-25 03:00:00 9.6 4 Oeste 13 Sudoeste 0 950.4 -0.4 73
2017-10-25 02:00:00 11.6 6 Sudoeste 15 Sudoeste 0 950.5 -0.2 63
2017-10-25 01:00:00 13.4 6 Sudoeste 14 Sudoeste 0 950.8 0.3 60
2017-10-25 00:00:00 14.8 8 Sudoeste 14 Sudoeste 0 950.8 0.6 63